sensor_id;sensor_type;location;lat;lon;timestamp;temperature;humidity
46490;DHT22;32204;49.160;8.580;2023-08-21T00:01:05;24.80;6.90
46490;DHT22;32204;49.160;8.580;2023-08-21T00:03:31;24.60;22.60
46490;DHT22;32204;49.160;8.580;2023-08-21T00:05:56;24.50;99.90
46490;DHT22;32204;49.160;8.580;2023-08-21T00:08:22;24.50;1.00
46490;DHT22;32204;49.160;8.580;2023-08-21T00:10:47;24.50;99.90
46490;DHT22;32204;49.160;8.580;2023-08-21T00:13:13;24.70;99.90
46490;DHT22;32204;49.160;8.580;2023-08-21T00:15:38;24.70;99.90
46490;DHT22;32204;49.160;8.580;2023-08-21T00:18:04;24.70;1.00
46490;DHT22;32204;49.160;8.580;2023-08-21T00:20:30;24.70;1.00
46490;DHT22;32204;49.160;8.580;2023-08-21T00:22:56;24.80;1.00
46490;DHT22;32204;49.160;8.580;2023-08-21T00:25:21;24.80;99.90
46490;DHT22;32204;49.160;8.580;2023-08-21T00:27:47;24.60;85.70
46490;DHT22;32204;49.160;8.580;2023-08-21T00:30:12;24.60;99.90
46490;DHT22;32204;49.160;8.580;2023-08-21T00:32:40;24.40;99.90
46490;DHT22;32204;49.160;8.580;2023-08-21T00:35:06;24.40;99.90
46490;DHT22;32204;49.160;8.580;2023-08-21T00:37:31;24.40;1.00
46490;DHT22;32204;49.160;8.580;2023-08-21T00:39:57;24.40;1.00
46490;DHT22;32204;49.160;8.580;2023-08-21T00:42:22;24.40;1.00
46490;DHT22;32204;49.160;8.580;2023-08-21T00:44:48;24.40;1.00
46490;DHT22;32204;49.160;8.580;2023-08-21T00:47:13;24.50;1.00
46490;DHT22;32204;49.160;8.580;2023-08-21T00:49:39;24.50;99.90
46490;DHT22;32204;49.160;8.580;2023-08-21T00:52:05;24.50;99.90
46490;DHT22;32204;49.160;8.580;2023-08-21T00:54:32;24.30;99.90
46490;DHT22;32204;49.160;8.580;2023-08-21T00:56:57;24.30;99.90
46490;DHT22;32204;49.160;8.580;2023-08-21T00:59:23;24.00;1.00
46490;DHT22;32204;49.160;8.580;2023-08-21T01:01:48;23.90;99.90
46490;DHT22;32204;49.160;8.580;2023-08-21T01:04:14;23.90;1.00
46490;DHT22;32204;49.160;8.580;2023-08-21T01:06:39;23.90;1.00
46490;DHT22;32204;49.160;8.580;2023-08-21T01:11:43;23.60;99.90
46490;DHT22;32204;49.160;8.580;2023-08-21T01:14:11;23.40;99.90
46490;DHT22;32204;49.160;8.580;2023-08-21T01:16:41;23.30;45.30
46490;DHT22;32204;49.160;8.580;2023-08-21T01:19:09;23.20;99.90
46490;DHT22;32204;49.160;8.580;2023-08-21T01:21:38;23.30;1.00
46490;DHT22;32204;49.160;8.580;2023-08-21T01:24:03;23.40;81.50
46490;DHT22;32204;49.160;8.580;2023-08-21T01:26:29;23.60;99.90
46490;DHT22;32204;49.160;8.580;2023-08-21T01:28:54;23.80;1.00
46490;DHT22;32204;49.160;8.580;2023-08-21T01:31:33;23.80;1.00
46490;DHT22;32204;49.160;8.580;2023-08-21T01:34:01;23.60;99.90
46490;DHT22;32204;49.160;8.580;2023-08-21T01:36:29;23.70;99.90
46490;DHT22;32204;49.160;8.580;2023-08-21T01:38:55;23.80;99.90
46490;DHT22;32204;49.160;8.580;2023-08-21T01:41:24;23.90;45.50
46490;DHT22;32204;49.160;8.580;2023-08-21T01:43:50;24.00;1.00
46490;DHT22;32204;49.160;8.580;2023-08-21T01:46:15;24.00;99.90
46490;DHT22;32204;49.160;8.580;2023-08-21T01:48:41;24.10;99.90
46490;DHT22;32204;49.160;8.580;2023-08-21T01:51:06;24.00;99.90
46490;DHT22;32204;49.160;8.580;2023-08-21T01:53:32;24.00;99.90
46490;DHT22;32204;49.160;8.580;2023-08-21T01:55:57;24.00;99.90
46490;DHT22;32204;49.160;8.580;2023-08-21T01:58:23;24.00;99.90
46490;DHT22;32204;49.160;8.580;2023-08-21T02:00:48;24.00;99.90
46490;DHT22;32204;49.160;8.580;2023-08-21T02:03:14;24.10;99.90
46490;DHT22;32204;49.160;8.580;2023-08-21T02:05:40;24.00;99.90
46490;DHT22;32204;49.160;8.580;2023-08-21T02:08:06;24.00;99.90
46490;DHT22;32204;49.160;8.580;2023-08-21T02:10:31;23.90;99.90
46490;DHT22;32204;49.160;8.580;2023-08-21T02:12:57;23.80;77.60
46490;DHT22;32204;49.160;8.580;2023-08-21T02:15:23;23.50;1.00
46490;DHT22;32204;49.160;8.580;2023-08-21T02:17:48;23.40;99.90
46490;DHT22;32204;49.160;8.580;2023-08-21T02:20:14;23.30;99.90
46490;DHT22;32204;49.160;8.580;2023-08-21T02:22:39;23.20;99.90
46490;DHT22;32204;49.160;8.580;2023-08-21T02:25:05;23.00;1.00
46490;DHT22;32204;49.160;8.580;2023-08-21T02:27:30;22.90;99.90
46490;DHT22;32204;49.160;8.580;2023-08-21T02:29:56;23.00;99.90
46490;DHT22;32204;49.160;8.580;2023-08-21T02:32:21;23.00;35.50
46490;DHT22;32204;49.160;8.580;2023-08-21T02:34:47;23.10;99.90
46490;DHT22;32204;49.160;8.580;2023-08-21T02:37:12;23.10;99.90
46490;DHT22;32204;49.160;8.580;2023-08-21T02:39:38;22.90;1.00
46490;DHT22;32204;49.160;8.580;2023-08-21T02:42:03;22.90;99.90
46490;DHT22;32204;49.160;8.580;2023-08-21T02:44:29;22.90;99.90
46490;DHT22;32204;49.160;8.580;2023-08-21T02:46:54;23.00;99.90
46490;DHT22;32204;49.160;8.580;2023-08-21T02:49:20;23.10;1.00
46490;DHT22;32204;49.160;8.580;2023-08-21T02:51:45;23.20;99.90
46490;DHT22;32204;49.160;8.580;2023-08-21T02:54:11;23.30;99.90
46490;DHT22;32204;49.160;8.580;2023-08-21T02:56:36;23.30;1.00
46490;DHT22;32204;49.160;8.580;2023-08-21T02:59:02;23.20;99.60
46490;DHT22;32204;49.160;8.580;2023-08-21T03:01:27;23.00;1.00
46490;DHT22;32204;49.160;8.580;2023-08-21T03:03:53;23.00;1.00
46490;DHT22;32204;49.160;8.580;2023-08-21T03:06:18;22.90;99.90
46490;DHT22;32204;49.160;8.580;2023-08-21T03:08:44;23.10;1.00
46490;DHT22;32204;49.160;8.580;2023-08-21T03:11:09;23.20;1.00
46490;DHT22;32204;49.160;8.580;2023-08-21T03:13:35;23.30;99.90
46490;DHT22;32204;49.160;8.580;2023-08-21T03:16:00;23.20;1.00
46490;DHT22;32204;49.160;8.580;2023-08-21T03:18:29;23.20;1.00
46490;DHT22;32204;49.160;8.580;2023-08-21T03:20:55;23.20;1.00
46490;DHT22;32204;49.160;8.580;2023-08-21T03:23:21;23.30;1.00
46490;DHT22;32204;49.160;8.580;2023-08-21T03:25:46;23.20;99.90
46490;DHT22;32204;49.160;8.580;2023-08-21T03:28:12;23.20;1.00
46490;DHT22;32204;49.160;8.580;2023-08-21T03:30:39;23.20;99.90
46490;DHT22;32204;49.160;8.580;2023-08-21T03:33:04;23.20;99.90
46490;DHT22;32204;49.160;8.580;2023-08-21T03:35:30;23.20;99.90
46490;DHT22;32204;49.160;8.580;2023-08-21T03:37:56;23.20;99.90
46490;DHT22;32204;49.160;8.580;2023-08-21T03:40:21;23.20;99.90
46490;DHT22;32204;49.160;8.580;2023-08-21T03:42:47;23.30;56.70
46490;DHT22;32204;49.160;8.580;2023-08-21T03:45:12;23.30;1.00
46490;DHT22;32204;49.160;8.580;2023-08-21T03:47:38;23.30;1.00
46490;DHT22;32204;49.160;8.580;2023-08-21T03:50:03;23.20;62.40
46490;DHT22;32204;49.160;8.580;2023-08-21T03:52:29;23.20;1.00
46490;DHT22;32204;49.160;8.580;2023-08-21T03:54:55;23.20;46.30
46490;DHT22;32204;49.160;8.580;2023-08-21T03:57:20;23.30;1.00
46490;DHT22;32204;49.160;8.580;2023-08-21T03:59:45;23.30;99.90
46490;DHT22;32204;49.160;8.580;2023-08-21T04:02:11;23.30;99.90
46490;DHT22;32204;49.160;8.580;2023-08-21T04:04:36;23.30;99.90
46490;DHT22;32204;49.160;8.580;2023-08-21T04:07:02;23.20;99.90
46490;DHT22;32204;49.160;8.580;2023-08-21T04:09:28;23.10;99.90
46490;DHT22;32204;49.160;8.580;2023-08-21T04:11:53;23.00;1.00
46490;DHT22;32204;49.160;8.580;2023-08-21T04:14:18;22.80;99.90
46490;DHT22;32204;49.160;8.580;2023-08-21T04:16:44;22.70;99.90
46490;DHT22;32204;49.160;8.580;2023-08-21T04:19:09;22.70;1.00
46490;DHT22;32204;49.160;8.580;2023-08-21T04:21:35;22.80;99.90
46490;DHT22;32204;49.160;8.580;2023-08-21T04:24:00;22.80;99.90
46490;DHT22;32204;49.160;8.580;2023-08-21T04:26:26;22.90;99.90
46490;DHT22;32204;49.160;8.580;2023-08-21T04:28:51;22.90;99.90
46490;DHT22;32204;49.160;8.580;2023-08-21T04:31:17;22.80;99.90
46490;DHT22;32204;49.160;8.580;2023-08-21T04:33:42;22.70;1.00
46490;DHT22;32204;49.160;8.580;2023-08-21T04:36:13;22.70;99.90
46490;DHT22;32204;49.160;8.580;2023-08-21T04:38:39;22.80;99.90
46490;DHT22;32204;49.160;8.580;2023-08-21T04:41:06;22.80;99.90
46490;DHT22;32204;49.160;8.580;2023-08-21T04:43:31;22.90;99.90
46490;DHT22;32204;49.160;8.580;2023-08-21T04:45:57;22.90;99.90
46490;DHT22;32204;49.160;8.580;2023-08-21T04:48:22;23.10;99.90
46490;DHT22;32204;49.160;8.580;2023-08-21T04:50:48;23.10;3.90
46490;DHT22;32204;49.160;8.580;2023-08-21T04:53:13;23.00;1.00
46490;DHT22;32204;49.160;8.580;2023-08-21T04:55:39;23.10;1.00
46490;DHT22;32204;49.160;8.580;2023-08-21T04:58:06;23.20;1.00
46490;DHT22;32204;49.160;8.580;2023-08-21T05:00:31;23.20;99.90
46490;DHT22;32204;49.160;8.580;2023-08-21T05:02:57;23.10;99.90
46490;DHT22;32204;49.160;8.580;2023-08-21T05:05:22;23.10;99.90
46490;DHT22;32204;49.160;8.580;2023-08-21T05:07:48;23.10;1.00
46490;DHT22;32204;49.160;8.580;2023-08-21T05:10:13;23.20;1.00
46490;DHT22;32204;49.160;8.580;2023-08-21T05:12:39;23.30;99.90
46490;DHT22;32204;49.160;8.580;2023-08-21T05:15:04;23.60;1.00
46490;DHT22;32204;49.160;8.580;2023-08-21T05:17:30;24.30;1.00
46490;DHT22;32204;49.160;8.580;2023-08-21T05:19:56;24.90;99.90
46490;DHT22;32204;49.160;8.580;2023-08-21T05:22:21;25.50;1.00
46490;DHT22;32204;49.160;8.580;2023-08-21T05:24:47;26.00;3.00
46490;DHT22;32204;49.160;8.580;2023-08-21T05:27:12;26.40;99.90
46490;DHT22;32204;49.160;8.580;2023-08-21T05:29:38;26.90;66.60
46490;DHT22;32204;49.160;8.580;2023-08-21T05:32:04;27.30;1.00
46490;DHT22;32204;49.160;8.580;2023-08-21T05:34:30;27.70;99.90
46490;DHT22;32204;49.160;8.580;2023-08-21T05:36:55;28.10;99.90
46490;DHT22;32204;49.160;8.580;2023-08-21T05:39:21;28.50;99.90
46490;DHT22;32204;49.160;8.580;2023-08-21T05:41:46;28.90;52.50
46490;DHT22;32204;49.160;8.580;2023-08-21T05:44:12;29.20;1.00
46490;DHT22;32204;49.160;8.580;2023-08-21T05:46:37;29.30;1.00
46490;DHT22;32204;49.160;8.580;2023-08-21T05:49:03;29.50;1.00
46490;DHT22;32204;49.160;8.580;2023-08-21T05:51:29;29.80;1.00
46490;DHT22;32204;49.160;8.580;2023-08-21T05:53:54;30.10;1.00
46490;DHT22;32204;49.160;8.580;2023-08-21T05:56:20;30.50;1.00
46490;DHT22;32204;49.160;8.580;2023-08-21T05:58:45;31.00;1.00
46490;DHT22;32204;49.160;8.580;2023-08-21T06:01:11;31.50;99.90
46490;DHT22;32204;49.160;8.580;2023-08-21T06:03:37;32.00;99.90
46490;DHT22;32204;49.160;8.580;2023-08-21T06:06:02;32.40;99.90
46490;DHT22;32204;49.160;8.580;2023-08-21T06:08:28;32.50;99.90
46490;DHT22;32204;49.160;8.580;2023-08-21T06:10:53;32.80;99.90
46490;DHT22;32204;49.160;8.580;2023-08-21T06:13:19;33.20;99.90
46490;DHT22;32204;49.160;8.580;2023-08-21T06:15:44;33.30;99.90
46490;DHT22;32204;49.160;8.580;2023-08-21T06:18:10;33.30;99.90
46490;DHT22;32204;49.160;8.580;2023-08-21T06:20:36;33.70;99.90
46490;DHT22;32204;49.160;8.580;2023-08-21T06:23:01;33.70;99.90
46490;DHT22;32204;49.160;8.580;2023-08-21T06:25:27;33.60;99.90
46490;DHT22;32204;49.160;8.580;2023-08-21T06:27:52;33.80;99.90
46490;DHT22;32204;49.160;8.580;2023-08-21T06:30:18;34.20;99.90
46490;DHT22;32204;49.160;8.580;2023-08-21T06:32:44;34.70;99.90
46490;DHT22;32204;49.160;8.580;2023-08-21T06:35:09;34.80;99.90
46490;DHT22;32204;49.160;8.580;2023-08-21T06:37:35;34.60;99.90
46490;DHT22;32204;49.160;8.580;2023-08-21T06:40:00;34.10;99.90
46490;DHT22;32204;49.160;8.580;2023-08-21T06:42:26;33.50;99.90
46490;DHT22;32204;49.160;8.580;2023-08-21T06:44:51;34.00;99.90
46490;DHT22;32204;49.160;8.580;2023-08-21T06:47:17;34.80;99.90
46490;DHT22;32204;49.160;8.580;2023-08-21T06:49:42;35.60;99.90
46490;DHT22;32204;49.160;8.580;2023-08-21T06:52:08;35.90;99.90
46490;DHT22;32204;49.160;8.580;2023-08-21T06:54:33;35.40;95.60
46490;DHT22;32204;49.160;8.580;2023-08-21T06:56:59;35.20;98.90
46490;DHT22;32204;49.160;8.580;2023-08-21T06:59:24;35.20;95.10
46490;DHT22;32204;49.160;8.580;2023-08-21T07:01:50;35.30;91.80
46490;DHT22;32204;49.160;8.580;2023-08-21T07:04:16;34.70;90.80
46490;DHT22;32204;49.160;8.580;2023-08-21T07:06:42;33.10;99.90
46490;DHT22;32204;49.160;8.580;2023-08-21T07:09:07;31.70;99.90
46490;DHT22;32204;49.160;8.580;2023-08-21T07:11:33;30.70;99.90
46490;DHT22;32204;49.160;8.580;2023-08-21T07:13:58;30.00;99.90
46490;DHT22;32204;49.160;8.580;2023-08-21T07:16:24;29.50;99.90
46490;DHT22;32204;49.160;8.580;2023-08-21T07:18:51;29.20;1.00
46490;DHT22;32204;49.160;8.580;2023-08-21T07:21:17;28.70;1.00
46490;DHT22;32204;49.160;8.580;2023-08-21T07:23:42;28.50;1.00
46490;DHT22;32204;49.160;8.580;2023-08-21T07:26:08;28.40;61.30
46490;DHT22;32204;49.160;8.580;2023-08-21T07:28:33;28.30;94.50
46490;DHT22;32204;49.160;8.580;2023-08-21T07:30:59;28.00;99.90
46490;DHT22;32204;49.160;8.580;2023-08-21T07:33:25;27.70;99.90
46490;DHT22;32204;49.160;8.580;2023-08-21T07:35:57;28.30;99.90
46490;DHT22;32204;49.160;8.580;2023-08-21T07:38:23;29.20;20.70
46490;DHT22;32204;49.160;8.580;2023-08-21T07:40:48;29.50;1.00
46490;DHT22;32204;49.160;8.580;2023-08-21T07:43:14;29.40;1.00
46490;DHT22;32204;49.160;8.580;2023-08-21T07:45:39;29.60;1.00
46490;DHT22;32204;49.160;8.580;2023-08-21T07:48:05;29.70;1.00
46490;DHT22;32204;49.160;8.580;2023-08-21T07:50:30;29.50;1.00
46490;DHT22;32204;49.160;8.580;2023-08-21T07:52:56;29.50;1.00
46490;DHT22;32204;49.160;8.580;2023-08-21T07:55:21;29.50;1.00
46490;DHT22;32204;49.160;8.580;2023-08-21T07:57:47;29.60;1.00
46490;DHT22;32204;49.160;8.580;2023-08-21T08:00:13;29.50;1.00
46490;DHT22;32204;49.160;8.580;2023-08-21T08:02:38;29.30;1.00
46490;DHT22;32204;49.160;8.580;2023-08-21T08:05:04;29.30;1.00
46490;DHT22;32204;49.160;8.580;2023-08-21T08:07:29;29.50;1.00
46490;DHT22;32204;49.160;8.580;2023-08-21T08:09:55;29.40;1.00
46490;DHT22;32204;49.160;8.580;2023-08-21T08:12:20;29.20;1.00
46490;DHT22;32204;49.160;8.580;2023-08-21T08:14:46;29.20;1.00
46490;DHT22;32204;49.160;8.580;2023-08-21T08:17:12;29.20;1.00
46490;DHT22;32204;49.160;8.580;2023-08-21T08:19:37;29.20;1.00
46490;DHT22;32204;49.160;8.580;2023-08-21T08:22:03;29.30;1.00
46490;DHT22;32204;49.160;8.580;2023-08-21T08:24:28;29.20;1.00
46490;DHT22;32204;49.160;8.580;2023-08-21T08:26:54;29.30;1.00
46490;DHT22;32204;49.160;8.580;2023-08-21T08:29:19;29.50;1.00
46490;DHT22;32204;49.160;8.580;2023-08-21T08:31:45;29.70;1.00
46490;DHT22;32204;49.160;8.580;2023-08-21T08:34:10;29.70;1.00
46490;DHT22;32204;49.160;8.580;2023-08-21T08:36:36;29.70;1.00
46490;DHT22;32204;49.160;8.580;2023-08-21T08:39:01;29.60;1.00
46490;DHT22;32204;49.160;8.580;2023-08-21T08:41:33;29.50;1.00
46490;DHT22;32204;49.160;8.580;2023-08-21T08:44:02;29.50;1.00
46490;DHT22;32204;49.160;8.580;2023-08-21T08:46:29;29.60;1.00
46490;DHT22;32204;49.160;8.580;2023-08-21T08:48:55;29.60;1.00
46490;DHT22;32204;49.160;8.580;2023-08-21T08:51:21;29.60;1.00
46490;DHT22;32204;49.160;8.580;2023-08-21T08:53:48;29.80;1.00
46490;DHT22;32204;49.160;8.580;2023-08-21T08:56:13;30.10;1.00
46490;DHT22;32204;49.160;8.580;2023-08-21T08:58:39;30.20;1.00
46490;DHT22;32204;49.160;8.580;2023-08-21T09:01:08;30.30;1.00
46490;DHT22;32204;49.160;8.580;2023-08-21T09:03:35;30.30;1.00
46490;DHT22;32204;49.160;8.580;2023-08-21T09:06:01;30.10;1.00
46490;DHT22;32204;49.160;8.580;2023-08-21T09:08:26;30.00;1.00
46490;DHT22;32204;49.160;8.580;2023-08-21T09:10:52;30.20;1.00
46490;DHT22;32204;49.160;8.580;2023-08-21T09:13:19;30.30;1.00
46490;DHT22;32204;49.160;8.580;2023-08-21T09:15:45;30.30;1.00
46490;DHT22;32204;49.160;8.580;2023-08-21T09:18:12;30.40;1.00
46490;DHT22;32204;49.160;8.580;2023-08-21T09:20:38;30.40;1.00
46490;DHT22;32204;49.160;8.580;2023-08-21T09:23:04;30.50;1.00
46490;DHT22;32204;49.160;8.580;2023-08-21T09:25:33;30.50;1.00
46490;DHT22;32204;49.160;8.580;2023-08-21T09:27:59;30.30;1.00
46490;DHT22;32204;49.160;8.580;2023-08-21T09:30:24;30.30;1.00
46490;DHT22;32204;49.160;8.580;2023-08-21T09:32:57;30.40;1.00
46490;DHT22;32204;49.160;8.580;2023-08-21T09:35:25;30.40;1.00
46490;DHT22;32204;49.160;8.580;2023-08-21T09:37:51;30.40;99.90
46490;DHT22;32204;49.160;8.580;2023-08-21T09:40:18;30.50;99.90
46490;DHT22;32204;49.160;8.580;2023-08-21T09:42:44;30.60;99.90
46490;DHT22;32204;49.160;8.580;2023-08-21T09:45:09;30.60;99.90
46490;DHT22;32204;49.160;8.580;2023-08-21T09:47:35;30.60;99.90
46490;DHT22;32204;49.160;8.580;2023-08-21T09:50:02;30.50;99.90
46490;DHT22;32204;49.160;8.580;2023-08-21T09:52:28;30.60;99.90
46490;DHT22;32204;49.160;8.580;2023-08-21T09:54:53;30.70;99.90
46490;DHT22;32204;49.160;8.580;2023-08-21T09:57:19;30.90;99.90
46490;DHT22;32204;49.160;8.580;2023-08-21T09:59:45;30.90;99.90
46490;DHT22;32204;49.160;8.580;2023-08-21T10:02:11;31.00;99.90
46490;DHT22;32204;49.160;8.580;2023-08-21T10:04:40;31.20;99.90
46490;DHT22;32204;49.160;8.580;2023-08-21T10:07:07;31.10;99.90
46490;DHT22;32204;49.160;8.580;2023-08-21T10:09:33;31.20;99.90
46490;DHT22;32204;49.160;8.580;2023-08-21T10:11:59;31.40;99.90
46490;DHT22;32204;49.160;8.580;2023-08-21T10:14:24;31.30;99.90
46490;DHT22;32204;49.160;8.580;2023-08-21T10:16:51;31.40;99.90
46490;DHT22;32204;49.160;8.580;2023-08-21T10:19:17;31.60;99.90
46490;DHT22;32204;49.160;8.580;2023-08-21T10:21:45;31.60;99.90
46490;DHT22;32204;49.160;8.580;2023-08-21T10:24:11;31.50;99.90
46490;DHT22;32204;49.160;8.580;2023-08-21T10:26:39;31.60;99.90
46490;DHT22;32204;49.160;8.580;2023-08-21T10:29:05;31.70;99.90
46490;DHT22;32204;49.160;8.580;2023-08-21T10:31:34;31.80;99.90
46490;DHT22;32204;49.160;8.580;2023-08-21T10:34:01;31.90;99.90
46490;DHT22;32204;49.160;8.580;2023-08-21T10:47:13;32.20;99.90
46490;DHT22;32204;49.160;8.580;2023-08-21T10:49:40;31.90;99.90
46490;DHT22;32204;49.160;8.580;2023-08-21T10:52:06;31.80;99.90
46490;DHT22;32204;49.160;8.580;2023-08-21T10:57:29;32.10;99.90
46490;DHT22;32204;49.160;8.580;2023-08-21T11:02:29;32.40;99.90
46490;DHT22;32204;49.160;8.580;2023-08-21T11:04:55;32.40;99.90
46490;DHT22;32204;49.160;8.580;2023-08-21T11:07:21;32.40;99.90
46490;DHT22;32204;49.160;8.580;2023-08-21T11:09:50;32.10;99.90
46490;DHT22;32204;49.160;8.580;2023-08-21T11:12:17;32.30;99.90
46490;DHT22;32204;49.160;8.580;2023-08-21T11:14:42;32.50;99.90
46490;DHT22;32204;49.160;8.580;2023-08-21T11:17:08;32.60;99.90
46490;DHT22;32204;49.160;8.580;2023-08-21T11:19:34;32.80;99.90
46490;DHT22;32204;49.160;8.580;2023-08-21T11:22:00;33.00;99.90
46490;DHT22;32204;49.160;8.580;2023-08-21T11:24:30;33.20;99.90
46490;DHT22;32204;49.160;8.580;2023-08-21T11:26:55;33.10;99.90
46490;DHT22;32204;49.160;8.580;2023-08-21T11:29:21;32.90;99.90
46490;DHT22;32204;49.160;8.580;2023-08-21T11:31:46;32.90;99.90
46490;DHT22;32204;49.160;8.580;2023-08-21T11:34:18;33.00;99.90
46490;DHT22;32204;49.160;8.580;2023-08-21T11:36:43;32.70;99.90
46490;DHT22;32204;49.160;8.580;2023-08-21T11:39:09;32.50;99.90
46490;DHT22;32204;49.160;8.580;2023-08-21T11:41:52;32.60;99.90
46490;DHT22;32204;49.160;8.580;2023-08-21T11:44:17;32.60;99.90
46490;DHT22;32204;49.160;8.580;2023-08-21T11:46:43;32.30;99.90
46490;DHT22;32204;49.160;8.580;2023-08-21T11:49:08;32.10;99.90
46490;DHT22;32204;49.160;8.580;2023-08-21T11:51:40;32.20;99.90
46490;DHT22;32204;49.160;8.580;2023-08-21T11:54:05;32.40;99.90
46490;DHT22;32204;49.160;8.580;2023-08-21T11:56:31;32.60;99.90
46490;DHT22;32204;49.160;8.580;2023-08-21T11:58:56;32.60;99.90
46490;DHT22;32204;49.160;8.580;2023-08-21T12:01:24;32.70;99.90
46490;DHT22;32204;49.160;8.580;2023-08-21T12:03:49;32.80;99.90
46490;DHT22;32204;49.160;8.580;2023-08-21T12:06:21;32.80;99.90
46490;DHT22;32204;49.160;8.580;2023-08-21T12:08:47;32.90;99.90
46490;DHT22;32204;49.160;8.580;2023-08-21T12:11:13;33.00;99.90
46490;DHT22;32204;49.160;8.580;2023-08-21T12:13:38;33.10;99.90
46490;DHT22;32204;49.160;8.580;2023-08-21T12:16:04;33.10;99.90
46490;DHT22;32204;49.160;8.580;2023-08-21T12:18:29;33.10;99.90
46490;DHT22;32204;49.160;8.580;2023-08-21T12:20:55;33.20;99.90
46490;DHT22;32204;49.160;8.580;2023-08-21T12:23:21;33.20;99.90
46490;DHT22;32204;49.160;8.580;2023-08-21T12:25:46;33.30;99.90
46490;DHT22;32204;49.160;8.580;2023-08-21T12:28:12;33.30;99.90
46490;DHT22;32204;49.160;8.580;2023-08-21T12:30:38;33.30;99.90
46490;DHT22;32204;49.160;8.580;2023-08-21T12:33:03;33.30;99.90
46490;DHT22;32204;49.160;8.580;2023-08-21T12:35:29;33.50;99.90
46490;DHT22;32204;49.160;8.580;2023-08-21T12:37:56;33.60;99.90
46490;DHT22;32204;49.160;8.580;2023-08-21T12:40:21;33.50;99.90
46490;DHT22;32204;49.160;8.580;2023-08-21T12:42:47;33.50;99.90
46490;DHT22;32204;49.160;8.580;2023-08-21T12:45:12;33.40;99.90
46490;DHT22;32204;49.160;8.580;2023-08-21T12:47:38;33.40;99.90
46490;DHT22;32204;49.160;8.580;2023-08-21T12:50:04;33.50;98.90
46490;DHT22;32204;49.160;8.580;2023-08-21T12:52:30;33.60;96.20
46490;DHT22;32204;49.160;8.580;2023-08-21T12:54:55;33.50;97.50
46490;DHT22;32204;49.160;8.580;2023-08-21T12:57:21;33.50;96.80
46490;DHT22;32204;49.160;8.580;2023-08-21T12:59:47;33.50;94.60
46490;DHT22;32204;49.160;8.580;2023-08-21T13:02:12;33.50;95.30
46490;DHT22;32204;49.160;8.580;2023-08-21T13:04:40;33.60;98.50
46490;DHT22;32204;49.160;8.580;2023-08-21T13:07:06;33.70;96.60
46490;DHT22;32204;49.160;8.580;2023-08-21T13:09:31;33.70;92.60
46490;DHT22;32204;49.160;8.580;2023-08-21T13:11:58;33.60;90.90
46490;DHT22;32204;49.160;8.580;2023-08-21T13:14:24;33.50;90.00
46490;DHT22;32204;49.160;8.580;2023-08-21T13:16:49;33.50;90.10
46490;DHT22;32204;49.160;8.580;2023-08-21T13:19:15;33.50;91.30
46490;DHT22;32204;49.160;8.580;2023-08-21T13:21:40;33.60;91.90
46490;DHT22;32204;49.160;8.580;2023-08-21T13:24:06;33.70;91.40
46490;DHT22;32204;49.160;8.580;2023-08-21T13:26:32;33.60;84.60
46490;DHT22;32204;49.160;8.580;2023-08-21T13:28:57;33.60;74.40
46490;DHT22;32204;49.160;8.580;2023-08-21T13:31:23;33.70;73.80
46490;DHT22;32204;49.160;8.580;2023-08-21T13:33:52;33.60;66.60
46490;DHT22;32204;49.160;8.580;2023-08-21T13:36:19;33.70;70.80
46490;DHT22;32204;49.160;8.580;2023-08-21T13:38:46;33.80;64.00
46490;DHT22;32204;49.160;8.580;2023-08-21T13:41:11;33.80;72.20
46490;DHT22;32204;49.160;8.580;2023-08-21T13:43:37;33.90;75.40
46490;DHT22;32204;49.160;8.580;2023-08-21T13:46:02;34.00;58.70
46490;DHT22;32204;49.160;8.580;2023-08-21T13:48:34;34.10;63.20
46490;DHT22;32204;49.160;8.580;2023-08-21T13:50:59;34.00;62.30
46490;DHT22;32204;49.160;8.580;2023-08-21T13:53:25;34.20;60.90
46490;DHT22;32204;49.160;8.580;2023-08-21T13:55:50;34.00;47.40
46490;DHT22;32204;49.160;8.580;2023-08-21T13:58:16;34.10;51.10
46490;DHT22;32204;49.160;8.580;2023-08-21T14:00:42;34.10;47.40
46490;DHT22;32204;49.160;8.580;2023-08-21T14:03:07;34.30;47.20
46490;DHT22;32204;49.160;8.580;2023-08-21T14:05:33;34.30;43.10
46490;DHT22;32204;49.160;8.580;2023-08-21T14:07:59;34.10;37.40
46490;DHT22;32204;49.160;8.580;2023-08-21T14:10:24;34.00;37.60
46490;DHT22;32204;49.160;8.580;2023-08-21T14:12:50;33.90;35.60
46490;DHT22;32204;49.160;8.580;2023-08-21T14:15:16;33.90;39.30
46490;DHT22;32204;49.160;8.580;2023-08-21T14:17:43;34.10;36.60
46490;DHT22;32204;49.160;8.580;2023-08-21T14:20:09;34.20;28.00
46490;DHT22;32204;49.160;8.580;2023-08-21T14:22:34;34.10;24.60
46490;DHT22;32204;49.160;8.580;2023-08-21T14:25:00;34.20;26.00
46490;DHT22;32204;49.160;8.580;2023-08-21T14:27:26;34.30;19.90
46490;DHT22;32204;49.160;8.580;2023-08-21T14:29:51;34.20;17.30
46490;DHT22;32204;49.160;8.580;2023-08-21T14:32:16;34.00;17.50
46490;DHT22;32204;49.160;8.580;2023-08-21T14:34:42;34.10;17.80
46490;DHT22;32204;49.160;8.580;2023-08-21T14:37:08;34.40;20.10
46490;DHT22;32204;49.160;8.580;2023-08-21T14:39:34;34.70;18.40
46490;DHT22;32204;49.160;8.580;2023-08-21T14:41:59;34.80;4.80
46490;DHT22;32204;49.160;8.580;2023-08-21T14:44:26;34.80;1.00
46490;DHT22;32204;49.160;8.580;2023-08-21T14:46:52;34.80;1.00
46490;DHT22;32204;49.160;8.580;2023-08-21T14:49:18;34.90;1.00
46490;DHT22;32204;49.160;8.580;2023-08-21T14:51:43;34.80;1.00
46490;DHT22;32204;49.160;8.580;2023-08-21T14:54:09;34.80;1.00
46490;DHT22;32204;49.160;8.580;2023-08-21T14:56:35;34.80;1.00
46490;DHT22;32204;49.160;8.580;2023-08-21T14:59:00;34.80;1.00
46490;DHT22;32204;49.160;8.580;2023-08-21T15:01:26;34.80;1.00
46490;DHT22;32204;49.160;8.580;2023-08-21T15:03:51;34.90;1.00
46490;DHT22;32204;49.160;8.580;2023-08-21T15:06:17;35.00;1.00
46490;DHT22;32204;49.160;8.580;2023-08-21T15:08:42;35.00;1.00
46490;DHT22;32204;49.160;8.580;2023-08-21T15:11:08;35.00;1.00
46490;DHT22;32204;49.160;8.580;2023-08-21T15:13:34;35.00;1.00
46490;DHT22;32204;49.160;8.580;2023-08-21T15:16:00;34.80;1.00
46490;DHT22;32204;49.160;8.580;2023-08-21T15:18:25;34.70;1.00
46490;DHT22;32204;49.160;8.580;2023-08-21T15:20:51;34.80;1.00
46490;DHT22;32204;49.160;8.580;2023-08-21T15:23:16;34.90;1.00
46490;DHT22;32204;49.160;8.580;2023-08-21T15:25:42;35.00;1.00
46490;DHT22;32204;49.160;8.580;2023-08-21T15:28:07;35.10;1.00
46490;DHT22;32204;49.160;8.580;2023-08-21T15:30:33;35.10;1.00
46490;DHT22;32204;49.160;8.580;2023-08-21T15:32:58;35.10;1.00
46490;DHT22;32204;49.160;8.580;2023-08-21T15:35:24;35.00;1.00
46490;DHT22;32204;49.160;8.580;2023-08-21T15:37:49;34.90;1.00
46490;DHT22;32204;49.160;8.580;2023-08-21T15:40:15;34.90;1.00
46490;DHT22;32204;49.160;8.580;2023-08-21T15:42:40;34.90;1.00
46490;DHT22;32204;49.160;8.580;2023-08-21T15:45:07;35.10;1.00